Latest Weather Observations for Penrith

IDN60901

Issued at 6:55 pm EST Sunday 20 April 2014 (issued every 10 minutes, with the page automatically refreshed every 10 minutes)

About weather observations | Map of Sydney area stations | Latest observations for Sydney area | Other Formats
Station Details ID: 067113 Name: PENRITH LAKES AWS Lat: -33.72 Lon: 150.68 Height: 24.7 m
Data from the previous 72 hours. | See also: Recent months at Penrith
Date/Time
EST
Tmp

°C
App
Tmp
°C
Dew
Point
°C
Rel
Hum
%
Delta-T

°C
Wind Press
QNH
hPa
Press
MSL
hPa
Rain
since
9 am
mm
Dir
 
Spd
km/h
Gust
km/h
Spd
kts
Gust
kts
20/06:30pm 17.0 18.4 14.5 85 1.4 S 0 0 0 0 - - 0.0
20/06:00pm 18.6 19.7 13.5 72 2.9 CALM 0 0 0 0 - - 0.0
20/05:30pm 20.5 21.3 12.5 60 4.5 CALM 0 0 0 0 - - 0.0
20/05:00pm 22.2 23.0 12.7 55 5.4 CALM 0 2 0 1 - - 0.0
20/04:30pm 22.3 21.7 11.7 51 5.9 ENE 6 7 3 4 - - 0.0
20/04:00pm 23.2 22.6 11.6 48 6.5 ENE 6 11 3 6 - - 0.0
20/03:30pm 23.3 22.6 12.0 49 6.4 ENE 7 11 4 6 - - 0.0
20/03:00pm 22.2 21.7 12.2 53 5.7 E 6 11 3 6 - - 0.0
20/02:30pm 23.2 22.1 11.9 49 6.4 NNE 9 19 5 10 - - 0.0
20/02:00pm 23.5 22.5 12.2 49 6.4 NE 9 19 5 10 - - 0.0
20/01:30pm 23.3 22.3 12.3 50 6.3 NE 9 15 5 8 - - 0.0
20/01:00pm 22.9 21.1 12.2 51 6.1 NNE 13 19 7 10 - - 0.0
20/12:30pm 22.4 20.4 11.5 50 6.1 NE 13 20 7 11 - - 0.0
20/12:00pm 22.6 21.2 12.3 52 5.8 NNE 11 26 6 14 - - 0.0
20/11:30am 21.9 21.1 11.6 52 5.8 NNE 7 11 4 6 - - 0.0
20/11:00am 20.6 19.5 10.7 53 5.4 NE 7 13 4 7 - - 0.0
20/10:30am 19.9 19.9 12.4 62 4.2 NNW 4 7 2 4 - - 0.0
20/10:00am 18.4 19.0 11.9 66 3.6 CALM 0 2 0 1 - - 0.0
20/09:30am 17.0 17.0 11.1 68 3.2 NNE 2 6 1 3 - - 0.0
20/09:00am 15.9 16.0 11.5 75 2.4 SE 2 4 1 2 - - 0.0
20/08:30am 15.1 15.6 11.5 79 1.9 CALM 0 4 0 2 - - 0.0
20/08:00am 13.6 13.7 12.7 94 0.5 SSE 4 6 2 3 - - 0.0
20/07:30am 12.3 12.2 12.0 98 0.2 SSE 4 4 2 2 - - 0.0
20/07:00am 11.6 11.3 11.3 98 0.2 S 4 6 2 3 - - 0.0
20/06:30am 11.3 10.9 11.0 98 0.2 S 4 6 2 3 - - 0.0
20/06:00am 11.3 10.9 11.0 98 0.2 SSW 4 6 2 3 - - 0.0
20/05:30am 10.7 10.9 10.4 98 0.2 CALM 0 4 0 2 - - 0.0
20/05:00am 11.4 11.4 11.1 98 0.2 WSW 2 4 1 2 - - 0.0
20/04:30am 12.0 12.2 11.7 98 0.2 NW 2 4 1 2 - - 0.0
20/04:00am 12.1 12.3 11.8 98 0.2 NW 2 4 1 2 - - 0.0
20/03:30am 12.2 12.0 11.9 98 0.2 NW 4 4 2 2 - - 0.0
20/03:00am 12.7 12.6 12.2 97 0.3 NNE 4 6 2 3 - - 0.0
20/02:30am 13.3 14.1 12.4 94 0.5 CALM 0 0 0 0 - - 0.0
20/02:00am 13.7 14.1 11.2 85 1.3 CALM 0 0 0 0 - - 0.0
20/01:30am 13.9 14.3 11.4 85 1.3 CALM 0 0 0 0 - - 0.0
20/01:00am 13.9 14.4 11.6 86 1.2 CALM 0 2 0 1 - - 0.0
20/12:30am 13.8 14.4 11.8 88 1.1 CALM 0 0 0 0 - - 0.0
20/12:00am 13.9 13.9 11.2 84 1.4 S 2 7 1 4 - - 0.0
 
Date/Time
EST
Tmp

°C
App
Tmp
°C
Dew
Point
°C
Rel
Hum
%
Delta-T

°C
Wind Press
QNH
hPa
Press
MSL
hPa
Rain
since
9 am
mm
Dir
 
Spd
km/h
Gust
km/h
Spd
kts
Gust
kts
19/11:30pm 14.5 14.3 10.3 76 2.2 SW 2 4 1 2 - - 0.0
19/11:00pm 14.7 14.0 10.1 74 2.4 WNW 4 7 2 4 - - 0.0
19/10:30pm 14.9 15.5 11.9 82 1.6 CALM 0 0 0 0 - - 0.0
19/10:00pm 14.4 13.9 10.6 78 2.0 SSW 4 6 2 3 - - 0.0
19/09:30pm 14.8 14.2 10.4 75 2.3 SW 4 4 2 2 - - 0.0
19/09:00pm 14.7 13.6 10.5 76 2.2 W 7 9 4 5 - - 0.0
19/08:30pm 15.1 15.2 10.3 73 2.5 CALM 0 0 0 0 - - 0.0
19/08:00pm 14.9 14.4 10.9 77 2.1 WSW 4 4 2 2 - - 0.0
19/07:30pm 15.2 14.5 10.2 72 2.6 SW 4 4 2 2 - - 0.0
19/07:00pm 15.5 15.1 9.8 69 3.0 S 2 6 1 3 - - 0.0
19/06:30pm 15.8 15.3 9.5 66 3.3 SSE 2 4 1 2 - - 0.0
19/06:00pm 16.4 14.9 9.1 62 3.8 SSE 7 11 4 6 - - 0.0
19/05:30pm 17.3 15.0 9.0 58 4.3 SSE 11 17 6 9 - - 0.0
19/05:00pm 18.5 16.0 9.6 56 4.7 SSE 13 20 7 11 - - 0.0
19/04:30pm 19.4 16.4 9.3 52 5.3 SE 15 20 8 11 - - 0.0
19/04:00pm 20.3 17.7 9.5 50 5.8 ESE 13 22 7 12 - - 0.0
19/03:30pm 21.0 17.4 9.9 49 6.0 ESE 19 28 10 15 - - 0.0
19/03:00pm 21.1 18.3 10.0 49 6.0 SE 15 26 8 14 - - 0.0
19/02:30pm 22.6 21.0 11.4 49 6.3 ESE 11 20 6 11 - - 0.0
19/02:00pm 22.9 22.2 11.3 48 6.5 ESE 6 11 3 6 - - 0.0
19/01:30pm 22.9 22.6 11.3 48 6.5 SSW 4 9 2 5 - - 0.0
19/01:00pm 22.6 22.3 11.4 49 6.3 SSW 4 7 2 4 - - 0.0
19/12:30pm 21.8 21.3 10.9 50 6.0 SE 4 7 2 4 - - 0.0
19/12:00pm 21.9 21.9 11.3 51 5.9 E 2 6 1 3 - - 0.0
19/11:30am 20.8 20.0 11.2 54 5.3 S 6 11 3 6 - - 0.0
19/11:00am 20.4 19.3 12.1 59 4.6 SE 9 15 5 8 - - 0.0
19/10:30am 19.8 20.0 11.8 60 4.4 S 2 6 1 3 - - 0.0
19/10:00am 19.3 19.1 11.8 62 4.1 S 4 7 2 4 - - 0.0
19/09:30am 18.6 19.0 12.4 67 3.5 SSE 2 6 1 3 - - 0.0
19/09:00am 18.0 18.6 11.8 67 3.4 CALM 0 0 0 0 - - 0.0
19/08:30am 17.4 18.7 14.1 81 1.9 CALM 0 0 0 0 - - 0.0
19/08:00am 15.1 16.1 13.3 89 1.0 CALM 0 0 0 0 - - 0.0
19/07:30am 14.2 15.4 13.9 98 0.2 CALM 0 0 0 0 - - 0.0
19/07:00am 12.4 13.1 12.1 98 0.2 CALM 0 0 0 0 - - 0.0
19/06:30am 11.3 11.6 11.0 98 0.2 CALM 0 0 0 0 - - 0.0
19/06:00am 11.6 11.3 11.3 98 0.2 S 4 4 2 2 - - 0.0
19/05:30am 11.7 12.1 11.4 98 0.2 CALM 0 0 0 0 - - 0.0
19/05:00am 11.7 11.8 11.4 98 0.2 S 2 6 1 3 - - 0.0
19/04:30am 12.2 12.8 11.9 98 0.2 CALM 0 0 0 0 - - 0.0
19/04:00am 12.4 13.0 11.9 97 0.3 CALM 0 4 0 2 - - 0.0
19/03:30am 12.6 13.3 12.3 98 0.2 CALM 0 0 0 0 - - 0.0
19/03:00am 12.5 12.4 12.2 98 0.2 SSW 4 4 2 2 - - 0.0
19/02:30am 12.6 12.9 12.3 98 0.2 SW 2 6 1 3 - - 0.0
19/02:00am 13.1 14.0 12.8 98 0.2 CALM 0 0 0 0 - - 0.0
19/01:30am 13.5 14.4 13.0 97 0.3 CALM 0 0 0 0 - - 0.0
19/01:00am 13.7 13.8 12.8 94 0.5 SSE 4 6 2 3 - - 0.0
19/12:30am 13.1 12.6 10.8 86 1.2 SW 4 9 2 5 - - 0.0
19/12:00am 13.7 13.1 11.8 88 1.0 S 6 7 3 4 - - 0.0
 
Date/Time
EST
Tmp

°C
App
Tmp
°C
Dew
Point
°C
Rel
Hum
%
Delta-T

°C
Wind Press
QNH
hPa
Press
MSL
hPa
Rain
since
9 am
mm
Dir
 
Spd
km/h
Gust
km/h
Spd
kts
Gust
kts
18/11:30pm 16.0 15.4 10.3 69 3.0 E 4 6 2 3 - - 0.0
18/11:00pm 15.2 14.7 12.2 82 1.6 E 6 7 3 4 - - 0.0
18/10:30pm 15.7 14.9 11.7 77 2.2 W 7 11 4 6 - - 0.0
18/10:00pm 15.4 15.6 10.6 73 2.5 CALM 0 6 0 3 - - 0.0
18/09:30pm 16.4 15.8 11.8 74 2.5 NNW 6 11 3 6 - - 0.0
18/09:00pm 16.2 16.1 12.2 77 2.2 SSW 4 7 2 4 - - 0.0
18/08:30pm 17.1 16.5 11.6 70 3.0 N 6 7 3 4 - - 0.0
18/08:00pm 18.0 16.9 10.1 60 4.2 WNW 6 7 3 4 - - 0.0
18/07:30pm 18.2 18.1 12.0 67 3.4 SW 4 6 2 3 - - 0.0
18/07:00pm 19.2 19.2 9.9 55 5.0 CALM 0 4 0 2 - - 0.0
18/06:30pm 19.3 18.5 9.5 53 5.2 W 4 7 2 4 - - 0.0
18/06:00pm 20.9 19.2 8.5 45 6.5 W 7 9 4 5 - - 0.0
18/05:30pm 21.9 18.7 8.4 42 7.1 W 15 22 8 12 - - 0.0
18/05:00pm 23.1 20.2 8.0 38 8.0 W 13 19 7 10 - - 0.0
18/04:30pm 24.7 23.5 9.4 38 8.3 W 6 17 3 9 - - 0.0
18/04:00pm 25.4 24.0 9.7 37 8.6 W 7 13 4 7 - - 0.0
18/03:30pm 25.5 24.8 10.1 38 8.5 N 4 7 2 4 - - 0.0
18/03:00pm 25.5 24.9 10.5 39 8.4 NE 4 9 2 5 - - 0.0
18/02:30pm 25.6 24.9 10.2 38 8.6 E 4 11 2 6 - - 0.0
18/02:00pm 25.1 24.2 9.4 37 8.6 NE 4 7 2 4 - - 0.0
18/01:30pm 24.9 24.1 9.6 38 8.4 WSW 4 6 2 3 - - 0.0
18/01:00pm 24.4 24.2 10.3 41 7.8 E 2 9 1 5 - - 0.0
18/12:30pm 23.6 22.7 10.6 44 7.2 SE 6 7 3 4 - - 0.0
18/12:00pm 22.6 22.0 10.4 46 6.7 WSW 4 6 2 3 - - 0.0
18/11:30am 22.0 22.2 11.7 52 5.8 S 2 6 1 3 - - 0.0
18/11:00am 20.7 20.8 12.7 60 4.5 SSE 4 7 2 4 - - 0.0
18/10:30am 19.1 19.5 12.6 66 3.6 WSW 2 6 1 3 - - 0.0
18/10:00am 18.0 18.1 12.7 71 3.0 SSW 4 6 2 3 - - 0.0
18/09:30am 16.8 16.8 12.3 75 2.5 S 4 6 2 3 - - 0.0
18/09:00am 16.0 17.0 13.3 84 1.5 CALM 0 2 0 1 - - 0.0
18/08:30am 15.4 16.4 13.2 87 1.2 CALM 0 0 0 0 - - 0.0
18/08:00am 13.9 14.8 13.0 94 0.5 CALM 0 0 0 0 - - 0.0
18/07:30am 12.6 13.3 12.3 98 0.2 CALM 0 0 0 0 - - 0.0
18/07:00am 11.5 11.9 11.3 99 0.1 CALM 0 0 0 0 - - 0.0
18/06:30am 11.0 11.2 10.7 98 0.2 CALM 0 0 0 0 - - 0.0
18/06:00am 10.9 11.1 10.6 98 0.2 CALM 0 0 0 0 - - 0.0
18/05:30am 10.9 10.7 10.6 98 0.2 NE 2 4 1 2 - - 0.0
18/05:00am 11.3 10.9 11.0 98 0.2 N 4 6 2 3 - - 0.0
18/04:30am 12.1 12.2 11.6 97 0.3 SSE 2 4 1 2 - - 0.0
18/04:00am 12.0 12.1 11.5 97 0.3 SE 2 6 1 3 - - 0.0
18/03:30am 12.8 13.6 12.5 98 0.2 CALM 0 0 0 0 - - 0.0
18/03:00am 12.5 12.4 12.2 98 0.2 SSE 4 6 2 3 - - 0.0
18/02:30am 12.9 13.7 12.6 98 0.2 CALM 0 0 0 0 - - 0.0
18/02:00am 12.8 13.2 12.5 98 0.2 S 2 4 1 2 - - 0.0
18/01:30am 12.3 12.5 12.0 98 0.2 S 2 4 1 2 - - 0.0
18/01:00am 13.3 14.2 13.0 98 0.2 CALM 0 0 0 0 - - 0.0
18/12:30am 13.5 14.5 13.2 98 0.2 CALM 0 0 0 0 - - 0.0
18/12:00am 13.9 15.0 13.6 98 0.2 CALM 0 0 0 0 - - 0.0
 
Date/Time
EST
Tmp

°C
App
Tmp
°C
Dew
Point
°C
Rel
Hum
%
Delta-T

°C
Wind Press
QNH
hPa
Press
MSL
hPa
Rain
since
9 am
mm
Dir
 
Spd
km/h
Gust
km/h
Spd
kts
Gust
kts
17/11:30pm 13.9 15.0 13.6 98 0.2 CALM 0 0 0 0 - - 0.0
17/11:00pm 14.1 15.2 13.6 97 0.3 CALM 0 0 0 0 - - 0.0
17/10:30pm 14.3 15.5 13.8 97 0.3 CALM 0 0 0 0 - - 0.0
17/10:00pm 14.7 16.0 14.2 97 0.3 CALM 0 0 0 0 - - 0.0
17/09:30pm 15.5 16.2 14.5 94 0.6 WSW 4 4 2 2 - - 0.0
17/09:00pm 15.9 17.1 14.9 94 0.6 SW 2 4 1 2 - - 0.0
17/08:30pm 16.0 16.3 14.5 91 0.9 W 6 7 3 4 - - 0.0
17/08:00pm 16.8 17.7 15.0 89 1.0 SW 4 4 2 2 - - 0.0
17/07:30pm 17.3 17.4 13.8 80 2.0 S 6 7 3 4 - - 0.0
17/07:00pm 17.7 17.9 13.2 75 2.5 SSE 4 7 2 4 - - 0.0

Latest Capital City Observations: Canberra | Sydney | Melbourne | Brisbane | Adelaide | Perth | Hobart | Darwin

Other Formats:

Comma delimited format used in spreadsheet applications
http://www.bom.gov.au/fwo/IDN60901/IDN60901.94763.axf

JavaScript Object Notation format (JSON) in row-major order
http://www.bom.gov.au/fwo/IDN60901/IDN60901.94763.json